Saybrook, IL (61770)

2:14 AM CDT on March 28, 2017 (GMT -0500)
Rural Saybrook | | Change Station

Elev 820 ft 40.46 °N, 88.54 °W | Updated 29 seconds ago

Overcast
Overcast
43.2 °F
Feels Like 37 °F
N
11.0
Wind Variable Wind from NNW

Today
High -- | Low -- °F
--% Chance of Precip.
Yesterday
High -- | Low -- °F
Precip. -- in
Pressure 30.06 in
Visibility 7.0 miles
Clouds Scattered Clouds 800 ft
Overcast 1200 ft
Windchill 37 °F
Dew Point 41 °F
Humidity 93%
Rainfall 0.00 in
Snow Depth Not available.
6:43 AM 7:14 PM
New Moon, 0% visible
METAR KBMI 280656Z AUTO 02009KT 7SM SCT008 OVC012 07/06 A2998 RMK AO2 SLP180 T00720061
Pressure 30.06 in
Visibility 7.0 miles
Clouds Scattered Clouds 800 ft
Overcast 1200 ft
Windchill 37 °F
Dew Point 41 °F
Humidity 93%
Rainfall 0.00 in
Snow Depth Not available.
6:43 AM 7:14 PM
New Moon, 0% visible
METAR KBMI 280656Z AUTO 02009KT 7SM SCT008 OVC012 07/06 A2998 RMK AO2 SLP180 T00720061

Get Severe Weather Alerts

Thanks for signing up!

Be on the lookout for a verification email in your inbox.

You'll start receiving the daily forecast at 8 AM.

×

10-Day Weather Forecast

Almanac

Astronomy

Mar. 28, 2017 Rise Set
Actual Time
Civil Twilight
Nautical Twilight
Astronomical Twilight
Moon
Length of Visible Light
Length of Day
Tomorrow will be .
, % of the Moon is Illuminated

Today's Extremes

State Highs State Lows

Community

WunderPhotos

Upload Photos

1,962,540 photos uploaded!

WunderBlog® & News

Nearby

Air Quality

  Air Quality AQ Index Pollutant
Not available.

Snow Depth

Station Depth Elevation

Earthquake Activity

City Distance Mag. Time & Date
Minimum magnitude displayed is 2.5.

Earthquake Activity

City Distance Mag. Time & Date
Minimum magnitude displayed is 2.5.

Coastal Water Temperatures

Place Temperature

Stations

Nearby Weather Stations

Station Location Temp. Windchill Dew Point Humidity Wind Precip. Elev Updated Type
                   

Watches & Warnings

There are currently no watches in effect.